Time;durP1;ratioP1;P1;durP2;ratioP2;P2;SDS_P1;SDS_P2;PMS_P1;PMS_P2;Temp;Humidity;BMP_temperature;BMP_pressure;BME280_temperature;BME280_humidity;BME280_pressure;Samples;Min_cycle;Max_cycle;Signal;HPM_P1;HPM_P2
2022/07/26 00:00:15;;;;;;;6.53;2.30;;;18.80;99.90;;;;;;5017105;28;20062;-77
2022/07/26 00:02:41;;;;;;;6.82;2.50;;;18.80;99.90;;;;;;5014648;28;20049;-77
2022/07/26 00:05:07;;;;;;;7.10;2.40;;;18.70;99.90;;;;;;5019480;28;20084;-77
2022/07/26 00:07:33;;;;;;;7.78;2.63;;;18.80;99.90;;;;;;5021129;28;20037;-78
2022/07/26 00:09:59;;;;;;;5.47;2.10;;;18.70;99.90;;;;;;5020400;28;20038;-77
2022/07/26 00:12:24;;;;;;;9.32;2.80;;;18.70;99.90;;;;;;5017436;28;20037;-77
2022/07/26 00:14:50;;;;;;;5.68;2.50;;;18.70;99.90;;;;;;5018279;28;20041;-77
2022/07/26 00:17:16;;;;;;;6.25;2.60;;;18.70;99.90;;;;;;5020683;28;20048;-77
2022/07/26 00:19:41;;;;;;;8.23;2.58;;;18.70;99.90;;;;;;5019993;28;20694;-77
2022/07/26 00:24:51;;;;;;;5.95;2.30;;;18.60;99.90;;;;;;5023469;28;20085;-78
2022/07/26 00:27:17;;;;;;;6.55;2.30;;;18.60;99.90;;;;;;5022870;28;20072;-77
2022/07/26 00:29:43;;;;;;;6.18;2.28;;;18.60;99.90;;;;;;5021858;28;20201;-78
2022/07/26 00:32:08;;;;;;;7.15;2.75;;;18.60;99.90;;;;;;5027903;28;20038;-79
2022/07/26 00:34:34;;;;;;;10.50;3.03;;;18.50;99.90;;;;;;5023066;28;20191;-79
2022/07/26 00:37:00;;;;;;;8.00;2.30;;;18.50;99.90;;;;;;5030860;28;20584;-78
2022/07/26 00:39:25;;;;;;;5.03;2.20;;;18.50;99.90;;;;;;5006388;28;20045;-79
2022/07/26 00:41:51;;;;;;;8.32;2.60;;;18.50;99.90;;;;;;5024643;28;20595;-79
2022/07/26 00:44:17;;;;;;;9.27;2.45;;;18.50;99.90;;;;;;5022406;28;20103;-78
2022/07/26 00:46:43;;;;;;;8.30;2.42;;;18.50;99.90;;;;;;5020638;28;20064;-78
2022/07/26 00:49:09;;;;;;;11.27;2.38;;;18.50;99.90;;;;;;5028958;28;20045;-78
2022/07/26 00:51:36;;;;;;;9.38;2.92;;;18.50;99.90;;;;;;5033630;28;20180;-78
2022/07/26 00:54:03;;;;;;;6.82;2.20;;;18.50;99.90;;;;;;5023632;28;20061;-78
2022/07/26 00:56:30;;;;;;;6.90;2.40;;;18.50;99.90;;;;;;5022868;28;20050;-78
2022/07/26 00:58:56;;;;;;;8.90;2.25;;;18.50;99.90;;;;;;5027992;28;20045;-78
2022/07/26 01:01:22;;;;;;;8.32;2.22;;;18.50;99.90;;;;;;5033545;28;20493;-77
2022/07/26 01:03:51;;;;;;;10.57;2.40;;;18.50;99.90;;;;;;5025237;28;20068;-78
2022/07/26 01:06:18;;;;;;;7.95;2.90;;;18.50;99.90;;;;;;5021737;28;20045;-78
2022/07/26 01:08:44;;;;;;;8.88;2.15;;;18.50;99.90;;;;;;5023853;28;20045;-78
2022/07/26 01:11:09;;;;;;;8.45;2.55;;;18.50;99.90;;;;;;5024159;28;20042;-78
2022/07/26 01:13:35;;;;;;;7.13;2.70;;;18.40;99.90;;;;;;5020537;28;20049;-78
2022/07/26 01:16:01;;;;;;;7.32;2.35;;;18.50;99.90;;;;;;5017207;28;20104;-77
2022/07/26 01:18:26;;;;;;;5.28;2.22;;;18.50;99.90;;;;;;5026055;28;20053;-78
2022/07/26 01:20:53;;;;;;;6.30;2.20;;;18.40;99.90;;;;;;5021541;28;20041;-78
2022/07/26 01:23:18;;;;;;;9.95;2.60;;;18.40;99.90;;;;;;5022644;28;20079;-80
2022/07/26 01:25:44;;;;;;;9.07;1.90;;;18.50;99.90;;;;;;5024703;28;20044;-79
2022/07/26 01:28:10;;;;;;;9.32;2.90;;;18.40;99.90;;;;;;5025403;28;20096;-79
2022/07/26 01:30:36;;;;;;;8.93;2.15;;;18.40;99.90;;;;;;5022609;28;20400;-77
2022/07/26 01:33:01;;;;;;;6.75;2.20;;;18.40;99.90;;;;;;5022033;28;20042;-76
2022/07/26 01:35:27;;;;;;;6.65;2.47;;;18.40;99.90;;;;;;5019585;28;20440;-78
2022/07/26 01:37:53;;;;;;;8.82;2.80;;;18.40;99.90;;;;;;5021298;28;20413;-78
2022/07/26 01:40:18;;;;;;;8.43;3.03;;;18.40;99.90;;;;;;5021839;28;20406;-79
2022/07/26 01:42:44;;;;;;;8.65;2.85;;;18.40;99.90;;;;;;5025058;28;20067;-79
2022/07/26 01:45:11;;;;;;;16.48;3.45;;;18.40;99.90;;;;;;5020965;28;20092;-77
2022/07/26 01:47:37;;;;;;;12.73;2.95;;;18.40;99.90;;;;;;5019124;28;20052;-76
2022/07/26 01:50:05;;;;;;;8.75;2.50;;;18.30;99.90;;;;;;5020879;28;20099;-76
2022/07/26 01:52:32;;;;;;;12.18;2.78;;;18.30;99.90;;;;;;5020219;28;20042;-76
2022/07/26 01:54:57;;;;;;;7.30;2.10;;;18.10;99.90;;;;;;5025547;28;20045;-76
2022/07/26 01:57:23;;;;;;;8.10;2.30;;;18.10;99.90;;;;;;5019138;28;20037;-76
2022/07/26 01:59:49;;;;;;;6.50;2.00;;;18.10;99.90;;;;;;5023472;28;20049;-76
2022/07/26 02:02:14;;;;;;;11.75;2.60;;;18.00;99.90;;;;;;5025234;28;20045;-75
2022/07/26 02:04:58;;;;;;;9.50;2.47;;;18.00;99.90;;;;;;5026243;28;20052;-76
2022/07/26 02:07:36;;;;;;;6.97;1.90;;;17.90;99.90;;;;;;5023905;28;20092;-76
2022/07/26 02:10:03;;;;;;;8.85;3.35;;;17.90;99.90;;;;;;5018461;28;20053;-77
2022/07/26 02:12:29;;;;;;;13.70;2.97;;;17.80;99.90;;;;;;5021200;28;20079;-78
2022/07/26 02:14:55;;;;;;;9.52;2.30;;;17.80;99.90;;;;;;5023274;28;20382;-78
2022/07/26 02:17:20;;;;;;;12.68;2.63;;;17.80;99.90;;;;;;5019208;28;20109;-77
2022/07/26 02:19:46;;;;;;;9.38;2.10;;;17.80;99.90;;;;;;5023233;28;20206;-77
2022/07/26 02:22:12;;;;;;;8.82;2.40;;;17.80;99.90;;;;;;5023143;28;20710;-77
2022/07/26 02:24:38;;;;;;;8.32;1.88;;;17.70;99.90;;;;;;5023231;28;20034;-77
2022/07/26 02:27:04;;;;;;;10.30;2.13;;;17.70;99.90;;;;;;5024677;28;20037;-76
2022/07/26 02:29:30;;;;;;;6.15;2.10;;;17.70;99.90;;;;;;5021039;28;20409;-76
2022/07/26 02:31:56;;;;;;;8.68;1.80;;;17.60;99.90;;;;;;5021270;28;20042;-76
2022/07/26 02:34:22;;;;;;;10.68;2.05;;;17.60;99.90;;;;;;5020812;28;20559;-77
2022/07/26 02:36:48;;;;;;;7.70;1.83;;;17.60;99.90;;;;;;5021273;28;20650;-78
2022/07/26 02:39:15;;;;;;;8.05;1.90;;;17.60;99.90;;;;;;5017171;28;20432;-77
2022/07/26 02:41:41;;;;;;;9.13;1.70;;;17.60;99.90;;;;;;5023716;28;20076;-79
2022/07/26 02:44:07;;;;;;;5.38;1.40;;;17.60;99.90;;;;;;5018323;28;20038;-75
2022/07/26 02:46:33;;;;;;;7.43;1.70;;;17.50;99.90;;;;;;5021129;28;20470;-77
2022/07/26 02:48:59;;;;;;;6.40;1.60;;;17.50;99.90;;;;;;5021139;28;20322;-77
2022/07/26 02:51:26;;;;;;;7.20;1.65;;;17.40;99.90;;;;;;5022398;28;20338;-77
2022/07/26 02:53:52;;;;;;;5.20;1.42;;;17.40;99.90;;;;;;5021594;28;20048;-77
2022/07/26 02:56:19;;;;;;;6.65;1.38;;;17.30;99.90;;;;;;5019045;28;20064;-77
2022/07/26 02:58:44;;;;;;;3.97;1.25;;;17.30;99.90;;;;;;5019054;28;20049;-78
2022/07/26 03:01:10;;;;;;;8.05;1.20;;;17.30;99.90;;;;;;5021038;28;20456;-77
2022/07/26 03:03:36;;;;;;;6.00;1.77;;;17.30;99.90;;;;;;5022224;28;20125;-78
2022/07/26 03:06:02;;;;;;;6.60;1.45;;;17.30;99.90;;;;;;5021143;28;20064;-77
2022/07/26 03:08:28;;;;;;;8.05;1.40;;;17.20;99.90;;;;;;5017286;28;20041;-77
2022/07/26 03:10:53;;;;;;;5.45;1.40;;;17.20;99.90;;;;;;5025168;28;20095;-77
2022/07/26 03:13:19;;;;;;;8.50;1.45;;;17.20;99.90;;;;;;5019044;28;20057;-79
2022/07/26 03:15:45;;;;;;;9.55;1.40;;;17.30;99.90;;;;;;5020037;28;20486;-78
2022/07/26 03:18:11;;;;;;;5.57;1.50;;;17.20;99.90;;;;;;5024560;28;20057;-78
2022/07/26 03:20:37;;;;;;;7.55;1.98;;;17.20;99.90;;;;;;5024989;28;20053;-78
2022/07/26 03:23:02;;;;;;;6.50;1.40;;;17.20;99.90;;;;;;5021596;28;20037;-75
2022/07/26 03:25:28;;;;;;;12.27;1.83;;;17.20;99.90;;;;;;5021594;28;20406;-77
2022/07/26 03:27:57;;;;;;;6.72;1.38;;;17.20;99.90;;;;;;5023907;28;20381;-78
2022/07/26 03:30:23;;;;;;;7.53;1.30;;;17.10;99.90;;;;;;5024961;28;20101;-78
2022/07/26 03:32:49;;;;;;;5.28;1.35;;;17.10;99.90;;;;;;5024380;28;20132;-77
2022/07/26 03:35:16;;;;;;;3.42;1.00;;;17.10;99.90;;;;;;5019897;28;20187;-77
2022/07/26 03:37:42;;;;;;;4.35;0.93;;;17.10;99.90;;;;;;5020603;28;20041;-78
2022/07/26 03:40:08;;;;;;;8.65;1.48;;;17.00;99.90;;;;;;5023397;28;20481;-77
2022/07/26 03:42:34;;;;;;;7.28;1.10;;;17.00;99.90;;;;;;5022266;28;20045;-78
2022/07/26 03:45:00;;;;;;;4.28;1.60;;;17.00;99.90;;;;;;5022955;28;20042;-77
2022/07/26 03:47:26;;;;;;;7.32;1.50;;;17.00;99.90;;;;;;5021694;28;20056;-77
2022/07/26 03:49:51;;;;;;;6.65;1.40;;;17.00;99.90;;;;;;5020237;28;20053;-78
2022/07/26 03:52:17;;;;;;;7.53;1.70;;;17.00;99.90;;;;;;5018959;28;20049;-78
2022/07/26 03:54:42;;;;;;;5.20;1.50;;;17.00;99.90;;;;;;5018681;28;20441;-78
2022/07/26 03:57:08;;;;;;;4.75;1.23;;;17.00;99.90;;;;;;5021258;28;20042;-76
2022/07/26 03:59:34;;;;;;;6.68;1.48;;;17.00;99.90;;;;;;5040694;28;20214;-77
2022/07/26 04:02:00;;;;;;;5.47;1.20;;;17.00;99.90;;;;;;5023538;28;20490;-77
2022/07/26 04:04:25;;;;;;;5.25;1.15;;;16.90;99.90;;;;;;5028575;28;20057;-77
2022/07/26 04:06:51;;;;;;;8.57;1.40;;;16.90;99.90;;;;;;5043262;28;20040;-77
2022/07/26 04:09:17;;;;;;;6.65;1.35;;;16.90;99.90;;;;;;5027689;28;20123;-77
2022/07/26 04:11:42;;;;;;;9.30;1.48;;;16.90;99.90;;;;;;5048537;28;20033;-78
2022/07/26 04:14:09;;;;;;;6.15;1.30;;;16.90;99.90;;;;;;5040337;28;20519;-77
2022/07/26 04:16:35;;;;;;;6.28;1.50;;;16.80;99.90;;;;;;5047127;28;20040;-78
2022/07/26 04:19:00;;;;;;;6.38;1.30;;;16.80;99.90;;;;;;5036913;28;20041;-77
2022/07/26 04:21:26;;;;;;;8.02;1.40;;;16.80;99.90;;;;;;5021743;28;20038;-77
2022/07/26 04:23:52;;;;;;;8.40;1.38;;;16.90;99.90;;;;;;5044385;28;20559;-77
2022/07/26 04:26:20;;;;;;;7.55;1.73;;;16.90;99.90;;;;;;5048259;28;20033;-76
2022/07/26 04:28:46;;;;;;;7.43;1.15;;;16.90;99.90;;;;;;5041364;28;20042;-77
2022/07/26 04:31:12;;;;;;;4.70;1.10;;;16.80;99.90;;;;;;5026405;28;20107;-77
2022/07/26 04:33:37;;;;;;;5.93;1.20;;;16.80;99.90;;;;;;5046788;28;20037;-77
2022/07/26 04:36:03;;;;;;;7.65;1.10;;;16.80;99.90;;;;;;5041819;28;20136;-76
2022/07/26 04:38:29;;;;;;;8.60;1.30;;;16.80;99.90;;;;;;5021657;28;20539;-77
2022/07/26 04:40:56;;;;;;;8.05;1.40;;;16.70;99.90;;;;;;5027994;28;20180;-77
2022/07/26 04:43:23;;;;;;;8.40;1.60;;;16.70;99.90;;;;;;5028235;28;20053;-77
2022/07/26 04:45:48;;;;;;;10.55;2.35;;;16.70;99.90;;;;;;5008847;28;20091;-77
2022/07/26 04:48:14;;;;;;;4.47;1.20;;;16.70;99.90;;;;;;5022389;28;20430;-76
2022/07/26 04:50:40;;;;;;;5.75;1.67;;;16.70;99.90;;;;;;5022344;28;20088;-76
2022/07/26 04:53:06;;;;;;;5.35;1.13;;;16.80;99.90;;;;;;5021121;28;20053;-76
2022/07/26 04:55:32;;;;;;;6.20;1.42;;;16.70;99.90;;;;;;5003470;28;20042;-77
2022/07/26 04:57:57;;;;;;;4.68;1.40;;;16.80;99.90;;;;;;5025273;28;20135;-77
2022/07/26 05:00:23;;;;;;;6.35;1.42;;;16.80;99.90;;;;;;5022506;28;20408;-77
2022/07/26 05:02:58;;;;;;;4.00;0.90;;;16.80;99.90;;;;;;5032382;28;20037;-77
2022/07/26 05:05:26;;;;;;;5.93;1.20;;;16.80;99.90;;;;;;5029217;28;20053;-77
2022/07/26 05:07:54;;;;;;;4.35;1.13;;;16.80;99.90;;;;;;5043171;28;20065;-77
2022/07/26 05:10:21;;;;;;;4.53;1.23;;;16.90;99.90;;;;;;5040487;28;20052;-77
2022/07/26 05:12:48;;;;;;;4.07;1.10;;;16.90;99.90;;;;;;5043254;28;20132;-78
2022/07/26 05:15:14;;;;;;;3.97;0.80;;;16.90;99.90;;;;;;5017820;28;20623;-77
2022/07/26 05:17:42;;;;;;;10.43;1.60;;;16.90;99.90;;;;;;5003655;28;20485;-77
2022/07/26 05:20:09;;;;;;;5.63;0.90;;;16.90;99.90;;;;;;5007058;28;20046;-77
2022/07/26 05:22:35;;;;;;;4.03;1.13;;;16.80;99.90;;;;;;5007318;28;20050;-77
2022/07/26 05:25:03;;;;;;;4.47;1.00;;;16.80;99.90;;;;;;5006585;28;20204;-75
2022/07/26 05:27:28;;;;;;;7.32;1.10;;;16.80;99.90;;;;;;4996252;28;20533;-77
2022/07/26 05:29:54;;;;;;;8.52;1.10;;;16.80;99.90;;;;;;5005779;28;20042;-77
2022/07/26 05:32:21;;;;;;;7.22;1.48;;;16.70;99.90;;;;;;5006692;28;20049;-77
2022/07/26 05:34:47;;;;;;;6.03;1.13;;;16.80;99.90;;;;;;4998031;28;20129;-77
2022/07/26 05:37:13;;;;;;;12.57;2.33;;;16.70;99.90;;;;;;5003129;28;20180;-76
2022/07/26 05:39:38;;;;;;;7.07;1.13;;;16.70;99.90;;;;;;4999924;28;20062;-78
2022/07/26 05:42:04;;;;;;;6.05;1.17;;;16.70;99.90;;;;;;5001157;28;20125;-77
2022/07/26 05:44:30;;;;;;;6.70;1.00;;;16.70;99.90;;;;;;5003632;28;20038;-78
2022/07/26 05:46:55;;;;;;;5.82;1.13;;;16.70;99.90;;;;;;5002887;28;20119;-77
2022/07/26 05:49:21;;;;;;;6.63;1.17;;;16.80;99.90;;;;;;4999068;28;20186;-76
2022/07/26 05:51:46;;;;;;;5.88;1.00;;;16.80;99.90;;;;;;5004263;28;20048;-77
2022/07/26 05:54:12;;;;;;;4.55;1.05;;;16.80;99.90;;;;;;5002157;28;20046;-76
2022/07/26 05:56:38;;;;;;;8.00;1.35;;;16.90;99.90;;;;;;5002580;28;20149;-77
2022/07/26 05:59:03;;;;;;;4.57;0.88;;;16.90;99.90;;;;;;4998046;28;20042;-76
2022/07/26 06:01:31;;;;;;;5.93;0.88;;;17.00;99.90;;;;;;4998223;28;20497;-77
2022/07/26 06:03:57;;;;;;;6.55;1.27;;;17.10;99.90;;;;;;4997926;28;20379;-77
2022/07/26 06:06:23;;;;;;;9.18;1.77;;;17.10;99.90;;;;;;5000614;28;20046;-76
2022/07/26 06:08:49;;;;;;;10.38;1.55;;;17.10;99.90;;;;;;5004383;28;20553;-76
2022/07/26 06:11:15;;;;;;;7.05;1.30;;;17.00;99.90;;;;;;5001134;28;20096;-76
2022/07/26 06:13:41;;;;;;;12.18;2.10;;;17.00;99.90;;;;;;5001336;28;20046;-77
2022/07/26 06:16:07;;;;;;;10.60;1.67;;;16.90;99.90;;;;;;4995088;28;20041;-76
2022/07/26 06:18:32;;;;;;;8.15;1.67;;;17.00;99.90;;;;;;5005519;28;20232;-76
2022/07/26 06:20:58;;;;;;;7.95;1.67;;;17.00;99.90;;;;;;5001112;28;20060;-76
2022/07/26 06:23:24;;;;;;;12.60;2.08;;;17.00;99.90;;;;;;5002388;28;20552;-76
2022/07/26 06:25:50;;;;;;;11.32;1.40;;;17.10;99.90;;;;;;5004831;28;20034;-76
2022/07/26 06:28:15;;;;;;;7.53;1.20;;;17.10;99.90;;;;;;5003389;28;20504;-76
2022/07/26 06:30:43;;;;;;;4.78;1.20;;;17.20;99.90;;;;;;4996258;28;20517;-76
2022/07/26 06:33:09;;;;;;;5.20;1.20;;;17.20;99.90;;;;;;5004300;28;20069;-75
2022/07/26 06:35:37;;;;;;;4.88;1.15;;;17.30;99.90;;;;;;4992863;28;20068;-75
2022/07/26 06:38:04;;;;;;;3.80;1.30;;;17.30;99.90;;;;;;5001522;28;20500;-75
2022/07/26 06:40:30;;;;;;;5.72;1.13;;;17.40;99.90;;;;;;5004746;28;20132;-75
2022/07/26 06:42:55;;;;;;;4.78;1.02;;;17.40;99.90;;;;;;5000456;28;20125;-77
2022/07/26 06:45:21;;;;;;;3.67;0.77;;;17.50;99.90;;;;;;5000998;28;20061;-76
2022/07/26 06:47:47;;;;;;;3.90;0.93;;;17.60;99.90;;;;;;4997613;28;20092;-75
2022/07/26 06:50:13;;;;;;;5.28;0.90;;;17.70;99.90;;;;;;4997498;28;20038;-76
2022/07/26 06:52:38;;;;;;;7.30;1.10;;;17.60;99.90;;;;;;5000447;28;20050;-76
2022/07/26 06:55:05;;;;;;;10.50;2.20;;;17.70;99.90;;;;;;4999095;28;20100;-76
2022/07/26 06:57:31;;;;;;;6.57;1.52;;;17.50;99.90;;;;;;5002469;28;20121;-75
2022/07/26 06:59:56;;;;;;;8.75;1.60;;;17.30;99.90;;;;;;4992139;28;20554;-75
2022/07/26 07:02:22;;;;;;;7.05;1.20;;;17.10;99.90;;;;;;4994599;28;20597;-75
2022/07/26 07:04:47;;;;;;;6.50;1.83;;;17.00;99.90;;;;;;5001230;28;20069;-76
2022/07/26 07:07:13;;;;;;;9.77;2.03;;;16.80;99.90;;;;;;4994222;28;20053;-74
2022/07/26 07:09:39;;;;;;;8.35;1.80;;;16.80;99.90;;;;;;4998815;28;20044;-74
2022/07/26 07:12:06;;;;;;;10.15;1.52;;;16.70;99.90;;;;;;4997961;28;20047;-76
2022/07/26 07:14:32;;;;;;;9.35;1.55;;;16.70;99.90;;;;;;4998030;28;20082;-74
2022/07/26 07:16:58;;;;;;;5.82;1.70;;;16.80;99.90;;;;;;5019103;28;20045;-74
2022/07/26 07:19:25;;;;;;;7.43;1.23;;;16.90;99.90;;;;;;5031694;28;20078;-75
2022/07/26 07:21:51;;;;;;;11.50;1.90;;;17.00;99.90;;;;;;5044301;28;20064;-75
2022/07/26 07:24:17;;;;;;;9.02;1.95;;;17.20;99.90;;;;;;5021756;28;20041;-75
2022/07/26 07:26:43;;;;;;;6.78;1.52;;;17.30;99.90;;;;;;5021842;28;20080;-75
2022/07/26 07:29:13;;;;;;;10.15;1.70;;;17.40;99.90;;;;;;5040704;28;20045;-74
2022/07/26 07:31:39;;;;;;;6.22;1.50;;;17.50;99.90;;;;;;5042884;28;20041;-77
2022/07/26 07:34:05;;;;;;;7.50;1.45;;;17.70;99.90;;;;;;5047215;28;20500;-75
2022/07/26 07:36:30;;;;;;;13.07;1.88;;;17.90;99.90;;;;;;5032095;28;20042;-74
2022/07/26 07:38:56;;;;;;;10.18;1.50;;;18.10;99.90;;;;;;5022780;28;20045;-75
2022/07/26 07:41:22;;;;;;;11.45;1.80;;;18.20;99.90;;;;;;5005601;28;20117;-75
2022/07/26 07:43:47;;;;;;;8.77;2.42;;;18.20;99.90;;;;;;5008922;28;20395;-74
2022/07/26 07:46:13;;;;;;;6.88;1.38;;;18.30;99.90;;;;;;5044975;28;20520;-74
2022/07/26 07:48:42;;;;;;;6.70;1.67;;;18.40;99.90;;;;;;5028436;28;20045;-75
2022/07/26 07:51:08;;;;;;;6.85;1.75;;;18.40;99.90;;;;;;5026273;28;20052;-74
2022/07/26 07:53:34;;;;;;;8.70;2.35;;;18.30;99.90;;;;;;5023056;28;20500;-76
2022/07/26 07:55:59;;;;;;;11.05;1.75;;;18.10;99.90;;;;;;5028471;28;20049;-78
2022/07/26 07:58:25;;;;;;;9.77;1.90;;;18.00;99.90;;;;;;5030938;28;20057;-78
2022/07/26 08:00:52;;;;;;;8.25;1.63;;;17.90;99.90;;;;;;5019806;28;20045;-76
2022/07/26 08:03:17;;;;;;;7.70;1.80;;;17.90;99.90;;;;;;5005941;28;20088;-77
2022/07/26 08:05:43;;;;;;;9.32;1.60;;;17.80;99.90;;;;;;5026759;28;20041;-76
2022/07/26 08:08:09;;;;;;;10.05;2.00;;;17.80;99.90;;;;;;5022425;28;20666;-76
2022/07/26 08:10:34;;;;;;;10.68;1.88;;;17.80;99.90;;;;;;5044076;28;20044;-77
2022/07/26 08:13:00;;;;;;;9.45;1.50;;;17.80;99.90;;;;;;5030633;28;20045;-75
2022/07/26 08:15:26;;;;;;;10.65;2.00;;;17.90;99.90;;;;;;5018207;28;20250;-75
2022/07/26 08:17:52;;;;;;;10.98;2.15;;;18.00;99.90;;;;;;5047729;28;20154;-76
2022/07/26 08:20:18;;;;;;;9.13;2.08;;;18.10;99.90;;;;;;5049096;28;20029;-75
2022/07/26 08:22:44;;;;;;;7.00;2.13;;;18.20;99.90;;;;;;5030829;28;20646;-76
2022/07/26 08:25:10;;;;;;;8.82;2.53;;;18.40;99.90;;;;;;5011395;28;20281;-75
2022/07/26 08:27:36;;;;;;;11.52;2.70;;;18.50;99.90;;;;;;5022476;28;20064;-76
2022/07/26 08:30:02;;;;;;;10.35;2.42;;;18.50;99.90;;;;;;5006299;28;20498;-74
2022/07/26 08:32:28;;;;;;;13.23;2.45;;;18.40;99.90;;;;;;5013110;28;20060;-75
2022/07/26 08:34:54;;;;;;;14.95;3.10;;;18.30;99.90;;;;;;5034815;28;20049;-75
2022/07/26 08:37:19;;;;;;;9.82;2.28;;;18.10;99.90;;;;;;5031200;28;20049;-75
2022/07/26 08:39:46;;;;;;;8.75;2.35;;;17.90;99.90;;;;;;5030036;28;20117;-76
2022/07/26 08:42:14;;;;;;;12.40;2.95;;;17.80;99.90;;;;;;5029663;28;20231;-75
2022/07/26 08:44:45;;;;;;;17.38;3.17;;;17.70;99.90;;;;;;5025219;28;20064;-75
2022/07/26 08:47:18;;;;;;;10.02;2.38;;;17.70;99.90;;;;;;5047868;28;20041;-75
2022/07/26 08:49:45;;;;;;;10.98;2.60;;;17.80;99.90;;;;;;5026135;28;20043;-75
2022/07/26 08:52:12;;;;;;;17.55;3.78;;;18.10;99.90;;;;;;5027907;28;20111;-77
2022/07/26 08:54:48;;;;;;;14.93;3.00;;;18.50;99.90;;;;;;5028404;28;20049;-75
2022/07/26 08:57:14;;;;;;;15.63;3.53;;;18.70;99.90;;;;;;5030892;28;20052;-77
2022/07/26 08:59:39;;;;;;;13.32;3.33;;;18.90;99.90;;;;;;5041775;28;20045;-76
2022/07/26 09:02:08;;;;;;;12.27;2.83;;;19.00;99.90;;;;;;5026797;28;20048;-75
2022/07/26 09:04:36;;;;;;;14.82;2.47;;;19.10;99.90;;;;;;5026109;28;20059;-76
2022/07/26 09:07:11;;;;;;;11.82;2.63;;;19.10;99.90;;;;;;5046902;28;20053;-76
2022/07/26 09:10:01;;;;;;;11.40;2.92;;;19.10;99.90;;;;;;5026825;28;20048;-77
2022/07/26 09:12:28;;;;;;;10.55;2.13;;;19.00;99.90;;;;;;5019924;28;20049;-77
2022/07/26 09:14:55;;;;;;;12.75;2.42;;;19.00;99.90;;;;;;5022735;28;20583;-79
2022/07/26 09:17:23;;;;;;;13.98;2.60;;;18.90;99.90;;;;;;5026565;28;20496;-77
2022/07/26 09:20:09;;;;;;;14.60;3.90;;;18.90;99.90;;;;;;5025799;28;20417;-77
2022/07/26 09:22:36;;;;;;;14.00;2.67;;;19.00;99.90;;;;;;5029111;28;20033;-78
2022/07/26 09:25:17;;;;;;;15.68;2.80;;;19.10;99.90;;;;;;5025319;28;20037;-75
2022/07/26 09:27:43;;;;;;;5.93;2.10;;;19.20;99.90;;;;;;5026597;28;20042;-77
2022/07/26 09:30:09;;;;;;;9.63;2.03;;;19.50;99.90;;;;;;5015991;28;20413;-76
2022/07/26 09:32:35;;;;;;;10.63;2.08;;;19.60;99.90;;;;;;5021819;28;20099;-77
2022/07/26 09:35:15;;;;;;;8.13;2.15;;;19.70;99.90;;;;;;5018640;28;20030;-75
2022/07/26 09:37:42;;;;;;;5.72;1.73;;;19.70;99.90;;;;;;5018994;28;20156;-76
2022/07/26 09:40:13;;;;;;;6.70;1.60;;;19.70;99.90;;;;;;5020086;28;20136;-76
2022/07/26 09:42:57;;;;;;;15.07;2.22;;;19.70;99.90;;;;;;5023853;28;20180;-77
2022/07/26 09:45:23;;;;;;;9.43;2.20;;;19.90;99.90;;;;;;5026756;28;20041;-77
2022/07/26 09:47:49;;;;;;;8.95;1.95;;;19.90;99.90;;;;;;5020532;28;20045;-76
2022/07/26 09:50:18;;;;;;;11.75;2.38;;;19.90;99.90;;;;;;5021534;28;20052;-78
2022/07/26 09:52:56;;;;;;;8.57;1.83;;;19.90;99.90;;;;;;5022277;28;20050;-77
2022/07/26 09:55:22;;;;;;;9.88;1.83;;;19.90;99.90;;;;;;5021448;28;20485;-77
2022/07/26 09:57:50;;;;;;;7.72;1.75;;;19.80;99.90;;;;;;5029150;28;20053;-77
2022/07/26 10:00:17;;;;;;;8.75;2.50;;;19.80;99.90;;;;;;5015142;28;20045;-75
2022/07/26 10:02:42;;;;;;;7.32;1.88;;;19.80;99.90;;;;;;5018483;28;20077;-76
2022/07/26 10:05:11;;;;;;;9.25;1.92;;;20.00;99.90;;;;;;5027151;28;20513;-76
2022/07/26 10:07:37;;;;;;;7.20;1.60;;;20.20;99.90;;;;;;5022394;28;20129;-76
2022/07/26 10:10:07;;;;;;;7.65;1.83;;;20.30;99.90;;;;;;5027670;28;20038;-77
2022/07/26 10:12:34;;;;;;;7.32;1.90;;;20.50;99.90;;;;;;5028265;28;20087;-76
2022/07/26 10:15:00;;;;;;;9.05;2.17;;;20.60;99.90;;;;;;5017328;28;20052;-76
2022/07/26 10:17:29;;;;;;;7.22;1.52;;;20.70;99.90;;;;;;5024878;28;20041;-76
2022/07/26 10:19:56;;;;;;;7.80;1.42;;;20.80;99.90;;;;;;5025009;28;20076;-76
2022/07/26 10:22:26;;;;;;;7.75;1.50;;;20.80;99.90;;;;;;5024821;28;20133;-77
2022/07/26 10:24:53;;;;;;;8.45;1.92;;;20.70;99.90;;;;;;5027508;28;20065;-77
2022/07/26 10:27:38;;;;;;;8.32;1.67;;;20.70;99.90;;;;;;5025022;28;20041;-76
2022/07/26 10:30:26;;;;;;;6.55;1.77;;;20.80;99.90;;;;;;5019444;28;20042;-76
2022/07/26 10:33:05;;;;;;;9.65;1.90;;;20.80;99.90;;;;;;5022169;28;20042;-76
2022/07/26 10:35:35;;;;;;;7.13;1.75;;;21.10;99.90;;;;;;5022114;28;20041;-76
2022/07/26 10:38:12;;;;;;;6.30;1.83;;;21.40;99.90;;;;;;5018177;28;20057;-76
2022/07/26 10:40:54;;;;;;;8.57;1.67;;;21.50;99.90;;;;;;5028331;28;20049;-76
2022/07/26 10:43:20;;;;;;;7.93;1.95;;;21.50;99.90;;;;;;5024676;28;20041;-76
2022/07/26 10:45:45;;;;;;;7.47;1.60;;;21.40;99.60;;;;;;5024195;28;20045;-76
2022/07/26 10:48:17;;;;;;;9.88;1.85;;;21.30;99.90;;;;;;5023626;28;20212;-76
2022/07/26 10:50:48;;;;;;;7.20;1.77;;;21.30;99.90;;;;;;5027110;28;20030;-76
2022/07/26 10:53:25;;;;;;;8.57;1.52;;;21.20;99.90;;;;;;5022037;28;20050;-76
2022/07/26 10:55:55;;;;;;;5.85;1.70;;;21.10;99.90;;;;;;5031775;28;20045;-76
2022/07/26 10:58:22;;;;;;;8.23;1.83;;;21.00;99.90;;;;;;5025976;28;20228;-76
2022/07/26 11:00:56;;;;;;;6.95;1.55;;;21.00;99.90;;;;;;5025541;28;20377;-76
2022/07/26 11:03:22;;;;;;;6.75;1.85;;;21.00;99.80;;;;;;5025984;28;20490;-77
2022/07/26 11:05:49;;;;;;;7.65;2.15;;;21.00;99.90;;;;;;5025052;28;20103;-76
2022/07/26 11:08:15;;;;;;;4.82;1.50;;;21.00;99.90;;;;;;5018877;28;20322;-75
2022/07/26 11:10:43;;;;;;;5.68;1.58;;;20.90;99.70;;;;;;5027880;28;20327;-76
2022/07/26 11:13:10;;;;;;;6.75;1.65;;;20.80;98.90;;;;;;5019349;28;20140;-75
2022/07/26 11:15:42;;;;;;;9.75;1.73;;;20.90;99.90;;;;;;5019931;28;20048;-76
2022/07/26 11:18:12;;;;;;;5.72;1.50;;;20.90;99.80;;;;;;5022413;28;20053;-75
2022/07/26 11:20:39;;;;;;;6.15;1.42;;;21.00;99.90;;;;;;5023712;28;20050;-76
2022/07/26 11:23:19;;;;;;;7.97;1.70;;;21.00;99.90;;;;;;5026038;28;20056;-75
2022/07/26 11:26:02;;;;;;;8.20;1.63;;;21.00;99.90;;;;;;5021053;28;20046;-76
2022/07/26 11:28:27;;;;;;;;;;;21.00;99.90;;;;;;5015887;28;20494;-76
2022/07/26 11:30:57;;;;;;;9.13;1.90;;;21.10;99.90;;;;;;5016633;28;20012;-76
2022/07/26 11:33:37;;;;;;;8.95;2.15;;;21.20;99.90;;;;;;5019154;28;20550;-76
2022/07/26 11:36:03;;;;;;;5.15;1.30;;;21.40;99.90;;;;;;5022766;28;20073;-74
2022/07/26 11:38:49;;;;;;;6.75;1.40;;;21.50;99.90;;;;;;5027623;28;20338;-76
2022/07/26 11:41:20;;;;;;;7.18;1.85;;;21.50;99.10;;;;;;5026581;28;20046;-74
2022/07/26 11:43:45;;;;;;;6.20;1.30;;;21.40;99.50;;;;;;5021211;28;20485;-76
2022/07/26 11:46:11;;;;;;;7.07;1.77;;;21.10;99.40;;;;;;5023288;28;20076;-76
2022/07/26 11:48:43;;;;;;;7.40;1.75;;;20.90;99.90;;;;;;5029546;28;20121;-75
2022/07/26 11:51:14;;;;;;;5.07;1.45;;;21.20;99.90;;;;;;5021682;28;20056;-75
2022/07/26 11:53:39;;;;;;;7.70;1.55;;;21.60;99.90;;;;;;5024316;28;20482;-76
2022/07/26 11:56:13;;;;;;;6.30;1.63;;;21.80;99.90;;;;;;5021480;28;20057;-77
2022/07/26 11:58:40;;;;;;;8.07;1.60;;;22.00;99.00;;;;;;5018495;28;20230;-76
2022/07/26 12:01:08;;;;;;;7.20;1.45;;;21.90;99.60;;;;;;5022435;28;20046;-76
2022/07/26 12:03:38;;;;;;;5.43;1.50;;;21.90;98.90;;;;;;5023841;28;20099;-77
2022/07/26 12:06:09;;;;;;;6.88;1.35;;;21.90;98.50;;;;;;5020126;28;20049;-75
2022/07/26 12:08:42;;;;;;;6.45;1.42;;;22.00;99.40;;;;;;5021985;28;20482;-76
2022/07/26 12:11:08;;;;;;;;;;;22.00;98.80;;;;;;5021886;28;20064;-75
2022/07/26 12:13:54;;;;;;;7.70;2.00;;;22.10;98.90;;;;;;5016746;28;19921;-75
2022/07/26 12:16:44;;;;;;;6.03;1.30;;;22.10;97.80;;;;;;5017781;28;20397;-75
2022/07/26 12:19:15;;;;;;;6.90;1.42;;;21.90;97.80;;;;;;5026496;28;20124;-76
2022/07/26 12:21:47;;;;;;;10.02;2.25;;;21.70;97.80;;;;;;5030058;28;20044;-76
2022/07/26 12:24:32;;;;;;;5.97;1.60;;;21.50;96.90;;;;;;5024845;28;20144;-76
2022/07/26 12:27:22;;;;;;;6.65;1.50;;;21.30;97.70;;;;;;5026958;28;20580;-77
2022/07/26 12:29:52;;;;;;;10.07;1.52;;;21.20;98.20;;;;;;5023592;28;20049;-77
2022/07/26 12:32:29;;;;;;;6.97;1.80;;;21.20;97.50;;;;;;5028280;28;20045;-77
2022/07/26 12:35:07;;;;;;;5.80;1.65;;;21.10;97.30;;;;;;5030090;28;20120;-76
2022/07/26 12:37:36;;;;;;;5.72;1.55;;;21.10;97.40;;;;;;5028958;28;20053;-77
2022/07/26 12:40:06;;;;;;;4.43;1.23;;;21.10;96.90;;;;;;5029949;28;20045;-76
2022/07/26 12:42:50;;;;;;;7.93;1.63;;;20.90;97.30;;;;;;5029492;28;20064;-76
2022/07/26 12:45:21;;;;;;;5.32;1.48;;;20.80;97.40;;;;;;5020320;28;20045;-76
2022/07/26 12:47:51;;;;;;;5.40;1.50;;;20.70;97.10;;;;;;5025591;28;20061;-77
2022/07/26 12:50:21;;;;;;;6.90;1.30;;;20.70;97.20;;;;;;5027507;28;20500;-78